aviador You're here:

USSS Decoded Metar

SVERDLOVSK in RUSSIA
Report Time2017-03-01 19:30:00
UTC Time2017-03-01 19:54:37
Flight Rules vfr VFR
Wind220° at 8 kt
W.Decomp.*RWY 26: 4.7 kt HW 6.5 kt LCW
W.Rank220° ranks 24
Current wind is above 220° avg. (7.3)
Visibility9999 m
Phenomena:N/A
Clouds:N/A
Expected CloudBase > 1,200 ft AGL from Temp-Dew spread
CeilingNone
Temp-8°C (ISA -21)
Dew Point-11°C (79% RH)
AAT-14.0°C
QNH1023 hPa
Density Alt-2,208 ft
Elevation764 ft
Report Wrong Elevation
Raw Report
USSS 011930Z 22004MPS CAVOK M08/M11 Q1023 R26R/190050 NOSIG RMK
QFE746/0995=

Extra information for USSS:More info

Metar Taf Metar & Taf Last 4 Metars F.Rules Stats Wind Profile Meteogram Temp Stats Airport Information Weather charts Add Link Nearby VenuesMetar ALERT Operation Metar Decoded Social comments